Skamania, Washington
Current Conditions -  °F | °C
As of 9:59 PM on Tuesday 21 Oct 2014 (Local Time) from K4S2 Reporting Station
Overcast Overcast  
Wind Chill: 48°   Ceiling: 8500
Heat Index: 48°   Visibility: 10mi
Dew Point: 48°   Wind: 0mph
Humidity: 100%   Direction: NA
Pressure: 29.93"   Gusts: NA
Location:  46.0755°N, 121.895°W
Report Text: K4S2 220459Z AUTO 00000KT 10SM OVC085 09/09 A2993 RMK AO2 SLP148 T00900090
Loading
Personal Weather Stations






























Interactive Weather Map
Tropical Storm Tracking
New forecast layout! Learn more

10-Day Weather Forecast

Advertisements
Track Severe Weather on mobile